Latest Weather Observations for Southern Cross Airport

IDW60801

Issued at 10:34 pm WST Thursday 27 July 2017 (issued every 30 minutes, with the page automatically refreshed every 10 minutes)

About weather observations | Map of weather stations | Latest weather observations for WA | Other Formats
Station Details ID: 012320 Name: SOUTHERN CROSS AIRFIELD Lat: -31.24 Lon: 119.36 Height: 347.4 m
Data from the previous 72 hours. | See also: Recent months at Southern Cross Airport
Date/Time
WST
Temp
°C
App
Temp
°C
Dew
Point
°C
Rel
Hum
%
Delta-T
°C
Wind Press
QNH
hPa
Press
MSL
hPa
Rain since
9am
mm
Dir  Spd
km/h
Gust
km/h
Spd
kts
Gust
kts
27/10:30pm 10.4 6.1 1.2 53 3.9 NNW 13 17 7 9 1012.7 1012.9 0.0
27/10:00pm 10.8 6.9 1.1 51 4.1 NNW 11 15 6 8 1012.3 1012.5 0.0
27/09:30pm 12.0 7.3 1.1 47 4.7 N 15 19 8 10 1012.2 1012.4 0.0
27/09:00pm 11.3 7.1 1.5 51 4.2 N 13 15 7 8 1012.3 1012.5 0.0
27/08:30pm 12.0 8.7 2.2 51 4.3 N 9 13 5 7 1012.9 1013.1 0.0
27/08:00pm 12.4 8.6 2.0 49 4.6 N 11 13 6 7 1013.0 1013.2 0.0
27/07:30pm 12.1 9.1 2.3 51 4.3 NNW 7 9 4 5 1013.1 1013.3 0.0
27/07:00pm 13.5 10.2 2.4 47 5.0 N 9 11 5 6 1013.3 1013.5 0.0
27/06:30pm 15.5 11.8 2.3 41 6.0 NNW 11 13 6 7 1013.4 1013.6 0.0
27/06:00pm 15.9 11.4 2.0 39 6.3 NNW 15 17 8 9 1013.2 1013.4 0.0
27/05:30pm 18.4 13.9 1.9 33 7.6 N 15 17 8 9 1013.3 1013.5 0.0
27/05:00pm 21.0 15.2 2.3 29 8.9 NNW 22 28 12 15 1013.4 1013.6 0.0
27/04:30pm 21.9 14.5 2.1 27 9.4 NNW 30 39 16 21 1013.6 1013.8 0.0
27/04:00pm 22.0 15.3 3.6 30 9.0 NNW 28 35 15 19 1014.1 1014.4 0.0
27/03:30pm 22.1 14.9 2.8 28 9.3 NNW 30 46 16 25 1014.2 1014.5 0.0
27/03:00pm 22.1 15.3 3.3 29 9.2 NNW 28 44 15 24 1014.4 1014.7 0.0
27/02:30pm 21.7 15.3 5.2 34 8.3 NNW 28 41 15 22 1014.5 1014.8 0.0
27/02:03pm 21.5 14.8 5.4 35 8.1 N 30 48 16 26 1014.7 1014.9 0.0
27/02:00pm 21.8 15.1 5.7 35 8.2 N 30 43 16 23 1014.9 1015.1 0.0
27/01:30pm 21.3 15.2 6.4 38 7.7 N 28 43 15 23 1015.2 1015.4 0.0
27/01:00pm 21.5 15.8 8.4 43 7.0 N 28 39 15 21 1015.7 1015.9 0.0
27/12:30pm 19.9 13.3 7.9 46 6.3 N 32 39 17 21 1016.4 1016.6 0.0
27/12:00pm 19.7 14.3 8.1 47 6.1 N 26 37 14 20 1017.1 1017.4 0.0
27/11:30am 18.5 13.6 9.8 57 4.7 N 26 32 14 17 1018.2 1018.4 0.0
27/11:00am 17.5 12.5 9.7 60 4.2 N 26 35 14 19 1018.9 1019.1 0.0
27/10:30am 16.4 12.0 10.3 67 3.3 N 24 32 13 17 1019.6 1019.9 0.0
27/10:00am 14.3 11.2 11.5 83 1.5 N 19 26 10 14 1020.1 1020.4 0.0
27/09:30am 11.5 8.6 11.0 97 0.3 N 17 20 9 11 1020.3 1020.6 0.0
27/09:00am 10.1 7.2 9.6 97 0.3 N 15 19 8 10 1020.3 1020.6 0.4
27/08:30am 9.7 7.1 9.2 97 0.3 N 13 17 7 9 1020.1 1020.4 0.4
27/08:00am 8.2 6.0 7.8 97 0.2 N 9 13 5 7 1019.9 1020.2 0.4
27/07:30am 6.1 4.4 5.7 97 0.2 WNW 4 9 2 5 1020.0 1020.3 0.4
27/07:00am 5.4 4.2 4.8 96 0.3 CALM 0 0 0 0 1019.8 1020.1 0.4
27/06:30am 5.8 4.7 5.2 96 0.3 CALM 0 0 0 0 1019.6 1019.9 0.4
27/06:00am 5.9 4.8 5.3 96 0.3 CALM 0 0 0 0 1019.7 1020.0 0.4
27/05:30am 5.7 4.6 5.1 96 0.3 CALM 0 0 0 0 1019.9 1020.2 0.4
27/05:00am 5.4 3.9 4.8 96 0.3 SW 2 6 1 3 1020.1 1020.4 0.4
27/04:30am 5.4 4.2 4.7 95 0.3 CALM 0 0 0 0 1020.1 1020.4 0.4
27/04:00am 6.4 4.3 5.7 95 0.3 NE 6 7 3 4 1020.1 1020.4 0.4
27/03:30am 6.5 4.4 5.8 95 0.3 NNE 6 6 3 3 1020.3 1020.6 0.2
27/03:00am 7.1 6.3 6.4 95 0.3 CALM 0 0 0 0 1020.3 1020.6 0.2
27/02:30am 7.8 7.1 6.9 94 0.4 CALM 0 0 0 0 1020.3 1020.6 0.2
27/02:00am 7.9 7.2 7.0 94 0.4 CALM 0 0 0 0 1020.3 1020.6 0.2
27/01:30am 8.4 7.4 7.3 93 0.5 NNE 2 6 1 3 1020.3 1020.6 0.2
27/01:00am 8.9 7.1 7.8 93 0.5 NNE 7 9 4 5 1020.3 1020.6 0.2
27/12:30am 9.6 8.1 8.5 93 0.5 ENE 6 9 3 5 1020.2 1020.5 0.2
27/12:00am 10.3 10.1 9.1 92 0.6 CALM 0 0 0 0 1020.5 1020.8 0.2
 
Date/Time
WST
Temp
°C
App
Temp
°C
Dew
Point
°C
Rel
Hum
%
Delta-T
°C
Wind Press
QNH
hPa
Press
MSL
hPa
Rain since
9am
mm
Dir  Spd
km/h
Gust
km/h
Spd
kts
Gust
kts
26/11:30pm 10.6 9.4 9.4 92 0.6 NW 6 7 3 4 1020.9 1021.1 0.2
26/11:00pm 11.4 10.1 10.0 91 0.7 WNW 7 9 4 5 1020.9 1021.1 0.2
26/10:30pm 11.8 10.5 10.0 89 0.9 NW 7 9 4 5 1021.0 1021.2 0.2
26/10:00pm 12.9 13.1 10.4 85 1.3 CALM 0 0 0 0 1021.2 1021.4 0.2
26/09:30pm 13.0 13.2 10.7 86 1.2 CALM 0 2 0 1 1021.3 1021.5 0.2
26/09:00pm 13.0 11.9 10.5 85 1.3 WSW 7 7 4 4 1021.3 1021.5 0.2
26/08:30pm 13.4 11.8 10.2 81 1.7 W 9 15 5 8 1021.0 1021.2 0.2
26/08:00pm 13.8 11.7 11.1 84 1.4 WSW 13 17 7 9 1021.0 1021.2 0.2
26/07:30pm 14.0 11.5 11.2 83 1.5 WSW 15 20 8 11 1020.8 1021.0 0.2
26/07:00pm 14.9 11.5 11.3 79 2.0 SW 20 30 11 16 1020.5 1020.8 0.0
26/06:30pm 15.3 11.6 11.5 78 2.1 SW 22 30 12 16 1020.0 1020.3 0.0
26/06:00pm 15.7 11.6 11.5 76 2.3 SW 24 33 13 18 1019.6 1019.9 0.0
26/05:42pm 17.0 12.1 9.9 63 3.8 W 26 43 14 23 1019.2 1019.5 0.0
26/05:30pm 18.4 14.4 8.4 52 5.2 WNW 19 24 10 13 1018.6 1018.8 0.0
26/05:00pm 18.7 14.5 8.4 51 5.4 WNW 20 24 11 13 1018.4 1018.6 0.0
26/04:30pm 19.2 14.2 8.2 49 5.8 W 24 33 13 18 1018.2 1018.4 0.0
26/04:00pm 19.0 14.0 8.1 49 5.7 WNW 24 32 13 17 1018.0 1018.2 0.0
26/03:30pm 19.3 13.4 7.4 46 6.2 W 28 37 15 20 1017.8 1018.0 0.0
26/03:00pm 20.1 14.0 6.8 42 6.8 WNW 28 37 15 20 1017.5 1017.8 0.0
26/02:30pm 19.9 13.7 6.3 41 6.9 W 28 39 15 21 1017.4 1017.7 0.0
26/02:00pm 20.1 12.7 5.0 37 7.5 W 33 44 18 24 1017.3 1017.6 0.0
26/01:30pm 19.6 13.5 6.4 42 6.7 WNW 28 37 15 20 1017.5 1017.8 0.0
26/01:00pm 19.3 12.7 6.1 42 6.7 W 30 44 16 24 1017.9 1018.1 0.0
26/12:30pm 18.8 11.2 5.6 42 6.6 WNW 35 44 19 24 1018.3 1018.5 0.0
26/12:00pm 18.5 12.5 7.0 47 5.9 W 28 39 15 21 1018.7 1018.9 0.0
26/11:30am 18.2 12.6 7.3 49 5.6 WNW 26 32 14 17 1019.3 1019.6 0.0
26/11:00am 16.3 10.9 6.2 51 5.0 WNW 24 32 13 17 1019.8 1020.1 0.0
26/10:30am 16.2 11.2 6.6 53 4.8 WNW 22 28 12 15 1020.0 1020.3 0.0
26/10:00am 14.9 10.5 6.5 57 4.1 WNW 19 28 10 15 1020.0 1020.3 0.0
26/09:30am 12.6 9.8 5.3 61 3.5 NW 9 11 5 6 1020.1 1020.4 0.0
26/09:00am 10.5 7.5 4.0 64 2.9 N 9 11 5 6 1020.0 1020.3 0.0
26/08:30am 8.3 5.1 3.0 69 2.3 N 9 11 5 6 1020.0 1020.3 0.0
26/08:00am 4.2 2.3 2.6 89 0.7 N 2 6 1 3 1019.9 1020.2 0.0
26/07:30am 3.0 0.0 1.7 91 0.5 NNE 7 9 4 5 1019.9 1020.2 0.0
26/07:00am 0.3 -3.1 -0.8 92 0.4 SW 7 9 4 5 1019.8 1020.1 0.0
26/06:30am 0.7 -2.5 -0.6 91 0.5 SW 6 11 3 6 1019.6 1019.9 0.0
26/06:00am 0.5 -2.9 -0.9 90 0.5 SW 7 9 4 5 1019.2 1019.5 0.0
26/05:30am 1.2 -0.8 -0.3 90 0.6 CALM 0 0 0 0 1019.0 1019.3 0.0
26/05:00am 1.7 -0.3 0.1 89 0.6 CALM 0 0 0 0 1019.1 1019.4 0.0
26/04:30am 1.6 -0.4 0.0 89 0.6 CALM 0 0 0 0 1019.0 1019.3 0.0
26/04:00am 1.8 -0.2 0.2 89 0.6 CALM 0 0 0 0 1019.3 1019.6 0.0
26/03:30am 2.0 0.1 0.4 89 0.6 CALM 0 0 0 0 1019.3 1019.6 0.0
26/03:00am 2.4 0.5 0.8 89 0.6 CALM 0 0 0 0 1019.3 1019.6 0.0
26/02:30am 2.4 -0.3 0.6 88 0.7 SSW 4 6 2 3 1019.1 1019.4 0.0
26/02:00am 2.9 -0.6 1.1 88 0.7 SW 9 13 5 7 1019.5 1019.8 0.0
26/01:30am 3.2 0.6 1.1 86 0.8 N 4 6 2 3 1019.3 1019.6 0.0
26/01:00am 3.4 1.6 1.0 84 0.9 CALM 0 0 0 0 1019.5 1019.8 0.0
26/12:30am 4.8 3.2 2.5 85 1.0 CALM 0 0 0 0 1020.0 1020.3 0.0
26/12:00am 4.3 2.6 1.8 84 1.0 CALM 0 0 0 0 1020.1 1020.4 0.0
 
Date/Time
WST
Temp
°C
App
Temp
°C
Dew
Point
°C
Rel
Hum
%
Delta-T
°C
Wind Press
QNH
hPa
Press
MSL
hPa
Rain since
9am
mm
Dir  Spd
km/h
Gust
km/h
Spd
kts
Gust
kts
25/11:30pm 4.5 2.4 1.9 83 1.1 WNW 2 7 1 4 1020.3 1020.6 0.0
25/11:00pm 5.0 3.3 1.8 80 1.3 CALM 0 0 0 0 1020.5 1020.8 0.0
25/10:30pm 5.7 4.1 2.7 81 1.3 CALM 0 0 0 0 1020.9 1021.1 0.0
25/10:00pm 5.8 4.2 2.4 79 1.4 CALM 0 6 0 3 1020.7 1020.9 0.0
25/09:30pm 6.6 4.8 3.4 80 1.4 SW 2 7 1 4 1020.9 1021.1 0.0
25/09:00pm 6.6 5.1 3.0 78 1.5 CALM 0 0 0 0 1020.9 1021.1 0.0
25/08:30pm 8.8 6.3 4.6 75 1.9 SE 7 7 4 4 1020.3 1020.6 0.0
25/08:00pm 8.7 7.4 4.3 74 2.0 CALM 0 0 0 0 1020.4 1020.7 0.0
25/07:30pm 9.3 7.5 3.5 67 2.6 ENE 2 7 1 4 1020.3 1020.6 0.0
25/07:00pm 10.2 7.5 3.9 65 2.8 ESE 7 9 4 5 1020.4 1020.7 0.0
25/06:30pm 12.0 9.4 4.0 58 3.7 ESE 7 9 4 5 1020.3 1020.6 0.0
25/06:00pm 13.9 12.7 4.5 53 4.4 CALM 0 0 0 0 1020.0 1020.3 0.0
25/05:30pm 15.8 13.6 5.4 50 5.1 WNW 6 7 3 4 1020.0 1020.3 0.0
25/05:00pm 16.7 13.8 4.4 44 5.9 WNW 9 15 5 8 1020.0 1020.3 0.0
25/04:30pm 18.5 13.7 2.8 35 7.4 NW 17 22 9 12 1019.9 1020.2 0.0
25/04:00pm 18.8 14.7 4.2 38 7.1 NW 15 22 8 12 1019.8 1020.1 0.0
25/03:30pm 18.6 14.0 3.6 37 7.2 WNW 17 24 9 13 1019.6 1019.9 0.0
25/03:00pm 18.3 13.7 3.8 38 6.9 NNW 17 26 9 14 1019.9 1020.2 0.0
25/02:30pm 18.2 14.4 3.7 38 6.9 NNW 13 19 7 10 1020.0 1020.3 0.0
25/02:00pm 18.9 14.2 3.1 35 7.5 NW 17 28 9 15 1020.3 1020.6 0.0
25/01:30pm 17.7 13.8 3.6 39 6.7 N 13 20 7 11 1020.2 1020.5 0.0
25/01:00pm 17.7 14.8 4.6 42 6.3 WNW 9 19 5 10 1020.7 1020.9 0.0
25/12:30pm 17.5 15.0 6.7 49 5.5 NW 9 17 5 9 1021.3 1021.5 0.0
25/12:00pm 16.8 14.4 7.2 53 4.9 NNW 9 17 5 9 1021.8 1022.1 0.0
25/11:30am 16.1 13.4 7.3 56 4.5 N 11 19 6 10 1022.4 1022.7 0.0
25/11:00am 15.1 12.0 7.4 60 3.9 N 13 17 7 9 1022.7 1023.0 0.0
25/10:30am 14.5 11.8 7.5 63 3.5 N 11 17 6 9 1023.2 1023.5 0.0
25/10:00am 13.3 10.8 8.0 70 2.7 N 11 15 6 8 1023.6 1023.9 0.0
25/09:30am 11.8 9.6 7.9 77 1.9 N 9 13 5 7 1023.2 1023.5 0.0
25/09:00am 10.7 8.9 7.9 83 1.4 N 7 11 4 6 1022.9 1023.2 0.0
25/08:30am 8.2 7.5 7.1 93 0.5 CALM 0 0 0 0 1023.0 1023.3 0.0
25/08:00am 4.5 3.1 3.5 93 0.4 CALM 0 0 0 0 1023.0 1023.3 0.0
25/07:30am 3.2 1.6 2.2 93 0.4 CALM 0 0 0 0 1022.8 1023.1 0.0
25/07:00am 1.8 -0.1 0.8 93 0.4 CALM 0 0 0 0 1022.6 1022.9 0.0
25/06:30am 1.9 0.0 0.7 92 0.5 CALM 0 0 0 0 1022.3 1022.6 0.0
25/06:00am 2.3 0.5 1.1 92 0.5 CALM 0 0 0 0 1022.0 1022.3 0.0
25/05:30am 2.6 0.8 1.4 92 0.5 CALM 0 0 0 0 1021.7 1022.0 0.0
25/05:00am 3.2 1.5 2.0 92 0.5 CALM 0 0 0 0 1021.6 1021.9 0.0
25/04:30am 2.8 0.7 1.5 91 0.5 NE 2 7 1 4 1021.5 1021.8 0.0
25/04:00am 3.6 2.0 2.3 91 0.5 CALM 0 0 0 0 1021.4 1021.6 0.0
25/03:30am 3.5 1.9 2.2 91 0.5 CALM 0 0 0 0 1021.6 1021.9 0.0
25/03:00am 3.2 1.5 1.7 90 0.6 CALM 0 0 0 0 1021.6 1021.9 0.0
25/02:30am 4.8 3.4 3.3 90 0.6 CALM 0 0 0 0 1021.3 1021.5 0.0
25/02:00am 4.7 1.5 3.2 90 0.6 NE 9 9 5 5 1021.4 1021.6 0.0
25/01:30am 5.1 2.0 3.4 89 0.7 N 9 9 5 5 1021.3 1021.5 0.0
25/01:00am 5.4 4.0 3.4 87 0.8 CALM 0 0 0 0 1021.3 1021.5 0.0
25/12:30am 5.9 4.5 3.6 85 1.0 CALM 0 0 0 0 1021.2 1021.4 0.0
25/12:00am 6.3 4.9 3.6 83 1.2 CALM 0 0 0 0 1021.2 1021.4 0.0
 
Date/Time
WST
Temp
°C
App
Temp
°C
Dew
Point
°C
Rel
Hum
%
Delta-T
°C
Wind Press
QNH
hPa
Press
MSL
hPa
Rain since
9am
mm
Dir  Spd
km/h
Gust
km/h
Spd
kts
Gust
kts
24/11:30pm 7.8 6.6 4.7 81 1.4 CALM 0 0 0 0 1021.2 1021.4 0.0
24/11:00pm 7.4 6.0 3.6 77 1.6 CALM 0 0 0 0 1021.1 1021.3 0.0

Other Formats:

Comma delimited format used in spreadsheet applications
http://www.bom.gov.au/fwo/IDW60801/IDW60801.95634.axf

JavaScript Object Notation format (JSON) in row-major order
http://www.bom.gov.au/fwo/IDW60801/IDW60801.95634.json